sensor_id;sensor_type;location;lat;lon;timestamp;temperature;humidity
78345;DHT22;67620;51.134;6.548;2023-12-20T00:02:12;7.00;99.90
78345;DHT22;67620;51.134;6.548;2023-12-20T00:04:37;6.90;99.90
78345;DHT22;67620;51.134;6.548;2023-12-20T00:07:03;6.90;99.90
78345;DHT22;67620;51.134;6.548;2023-12-20T00:09:28;6.90;99.90
78345;DHT22;67620;51.134;6.548;2023-12-20T00:11:54;6.80;99.90
78345;DHT22;67620;51.134;6.548;2023-12-20T00:14:19;6.80;99.90
78345;DHT22;67620;51.134;6.548;2023-12-20T00:16:45;6.80;99.90
78345;DHT22;67620;51.134;6.548;2023-12-20T00:19:11;6.60;99.90
78345;DHT22;67620;51.134;6.548;2023-12-20T00:21:36;6.50;99.90
78345;DHT22;67620;51.134;6.548;2023-12-20T00:24:02;6.40;99.90
78345;DHT22;67620;51.134;6.548;2023-12-20T00:26:27;6.30;99.90
78345;DHT22;67620;51.134;6.548;2023-12-20T00:28:53;6.30;99.90
78345;DHT22;67620;51.134;6.548;2023-12-20T00:31:19;6.40;99.90
78345;DHT22;67620;51.134;6.548;2023-12-20T00:33:44;6.30;99.90
78345;DHT22;67620;51.134;6.548;2023-12-20T00:36:11;6.30;99.90
78345;DHT22;67620;51.134;6.548;2023-12-20T00:38:36;6.30;99.90
78345;DHT22;67620;51.134;6.548;2023-12-20T00:41:02;6.30;99.90
78345;DHT22;67620;51.134;6.548;2023-12-20T00:43:28;6.30;99.90
78345;DHT22;67620;51.134;6.548;2023-12-20T00:45:53;6.40;99.90
78345;DHT22;67620;51.134;6.548;2023-12-20T00:48:19;6.50;99.90
78345;DHT22;67620;51.134;6.548;2023-12-20T00:50:44;6.40;99.90
78345;DHT22;67620;51.134;6.548;2023-12-20T00:53:10;6.40;99.90
78345;DHT22;67620;51.134;6.548;2023-12-20T00:55:35;6.30;99.90
78345;DHT22;67620;51.134;6.548;2023-12-20T00:58:00;6.30;99.90
78345;DHT22;67620;51.134;6.548;2023-12-20T01:00:26;6.20;99.90
78345;DHT22;67620;51.134;6.548;2023-12-20T01:02:52;6.10;99.90
78345;DHT22;67620;51.134;6.548;2023-12-20T01:05:18;6.00;99.90
78345;DHT22;67620;51.134;6.548;2023-12-20T01:07:44;5.90;99.90
78345;DHT22;67620;51.134;6.548;2023-12-20T01:10:09;5.80;99.90
78345;DHT22;67620;51.134;6.548;2023-12-20T01:12:36;5.80;99.90
78345;DHT22;67620;51.134;6.548;2023-12-20T01:15:01;5.70;99.90
78345;DHT22;67620;51.134;6.548;2023-12-20T01:17:27;5.70;99.90
78345;DHT22;67620;51.134;6.548;2023-12-20T01:19:52;5.60;99.90
78345;DHT22;67620;51.134;6.548;2023-12-20T01:22:18;5.80;99.90
78345;DHT22;67620;51.134;6.548;2023-12-20T01:24:44;5.90;99.90
78345;DHT22;67620;51.134;6.548;2023-12-20T01:27:09;6.00;99.90
78345;DHT22;67620;51.134;6.548;2023-12-20T01:29:35;6.10;99.90
78345;DHT22;67620;51.134;6.548;2023-12-20T01:32:00;5.90;99.90
78345;DHT22;67620;51.134;6.548;2023-12-20T01:34:26;5.90;99.90
78345;DHT22;67620;51.134;6.548;2023-12-20T01:36:52;5.60;99.90
78345;DHT22;67620;51.134;6.548;2023-12-20T01:39:17;5.50;99.80
78345;DHT22;67620;51.134;6.548;2023-12-20T01:41:43;5.30;99.70
78345;DHT22;67620;51.134;6.548;2023-12-20T01:44:09;5.30;99.80
78345;DHT22;67620;51.134;6.548;2023-12-20T01:46:34;5.50;99.90
78345;DHT22;67620;51.134;6.548;2023-12-20T01:49:01;5.40;99.80
78345;DHT22;67620;51.134;6.548;2023-12-20T01:51:27;5.20;99.70
78345;DHT22;67620;51.134;6.548;2023-12-20T01:53:55;5.10;99.70
78345;DHT22;67620;51.134;6.548;2023-12-20T01:56:22;5.00;99.60
78345;DHT22;67620;51.134;6.548;2023-12-20T01:58:48;5.00;99.60
78345;DHT22;67620;51.134;6.548;2023-12-20T02:01:13;4.90;99.60
78345;DHT22;67620;51.134;6.548;2023-12-20T02:03:42;5.00;99.70
78345;DHT22;67620;51.134;6.548;2023-12-20T02:06:08;4.90;99.70
78345;DHT22;67620;51.134;6.548;2023-12-20T02:08:34;4.90;99.60
78345;DHT22;67620;51.134;6.548;2023-12-20T02:11:00;4.80;99.50
78345;DHT22;67620;51.134;6.548;2023-12-20T02:13:25;4.70;99.50
78345;DHT22;67620;51.134;6.548;2023-12-20T02:15:52;4.70;99.50
78345;DHT22;67620;51.134;6.548;2023-12-20T02:18:17;4.70;99.60
78345;DHT22;67620;51.134;6.548;2023-12-20T02:20:43;4.90;99.80
78345;DHT22;67620;51.134;6.548;2023-12-20T02:23:09;5.00;99.90
78345;DHT22;67620;51.134;6.548;2023-12-20T02:25:34;5.10;99.90
78345;DHT22;67620;51.134;6.548;2023-12-20T02:28:00;5.10;99.90
78345;DHT22;67620;51.134;6.548;2023-12-20T02:30:26;5.20;99.90
78345;DHT22;67620;51.134;6.548;2023-12-20T02:32:52;5.20;99.90
78345;DHT22;67620;51.134;6.548;2023-12-20T02:35:18;5.10;99.90
78345;DHT22;67620;51.134;6.548;2023-12-20T02:37:44;4.90;99.80
78345;DHT22;67620;51.134;6.548;2023-12-20T02:40:09;4.80;99.80
78345;DHT22;67620;51.134;6.548;2023-12-20T02:42:35;4.90;99.90
78345;DHT22;67620;51.134;6.548;2023-12-20T02:45:01;5.00;99.90
78345;DHT22;67620;51.134;6.548;2023-12-20T02:47:26;5.10;99.90
78345;DHT22;67620;51.134;6.548;2023-12-20T02:49:52;5.20;99.90
78345;DHT22;67620;51.134;6.548;2023-12-20T02:52:18;5.20;99.90
78345;DHT22;67620;51.134;6.548;2023-12-20T02:54:44;5.10;99.90
78345;DHT22;67620;51.134;6.548;2023-12-20T02:57:09;5.10;99.90
78345;DHT22;67620;51.134;6.548;2023-12-20T02:59:35;5.00;99.80
78345;DHT22;67620;51.134;6.548;2023-12-20T03:02:00;4.80;99.70
78345;DHT22;67620;51.134;6.548;2023-12-20T03:04:26;4.70;99.60
78345;DHT22;67620;51.134;6.548;2023-12-20T03:06:51;4.60;99.60
78345;DHT22;67620;51.134;6.548;2023-12-20T03:09:16;4.70;99.70
78345;DHT22;67620;51.134;6.548;2023-12-20T03:11:42;4.70;99.70
78345;DHT22;67620;51.134;6.548;2023-12-20T03:14:07;4.70;99.70
78345;DHT22;67620;51.134;6.548;2023-12-20T03:16:33;4.70;99.70
78345;DHT22;67620;51.134;6.548;2023-12-20T03:18:59;4.80;99.80
78345;DHT22;67620;51.134;6.548;2023-12-20T03:21:24;4.70;99.70
78345;DHT22;67620;51.134;6.548;2023-12-20T03:23:49;4.80;99.70
78345;DHT22;67620;51.134;6.548;2023-12-20T03:26:15;4.90;99.80
78345;DHT22;67620;51.134;6.548;2023-12-20T03:28:40;4.80;99.80
78345;DHT22;67620;51.134;6.548;2023-12-20T03:31:06;4.80;99.70
78345;DHT22;67620;51.134;6.548;2023-12-20T03:33:32;4.80;99.80
78345;DHT22;67620;51.134;6.548;2023-12-20T03:35:57;4.80;99.70
78345;DHT22;67620;51.134;6.548;2023-12-20T03:38:22;4.60;99.60
78345;DHT22;67620;51.134;6.548;2023-12-20T03:40:51;4.50;99.60
78345;DHT22;67620;51.134;6.548;2023-12-20T03:43:16;4.50;99.60
78345;DHT22;67620;51.134;6.548;2023-12-20T03:45:42;4.60;99.70
78345;DHT22;67620;51.134;6.548;2023-12-20T03:48:08;4.70;99.80
78345;DHT22;67620;51.134;6.548;2023-12-20T03:50:34;4.70;99.80
78345;DHT22;67620;51.134;6.548;2023-12-20T03:52:59;4.70;99.80
78345;DHT22;67620;51.134;6.548;2023-12-20T03:55:25;4.60;99.70
78345;DHT22;67620;51.134;6.548;2023-12-20T03:57:50;4.60;99.60
78345;DHT22;67620;51.134;6.548;2023-12-20T04:00:16;4.60;99.70
78345;DHT22;67620;51.134;6.548;2023-12-20T04:02:42;4.80;99.80
78345;DHT22;67620;51.134;6.548;2023-12-20T04:05:08;4.70;99.80
78345;DHT22;67620;51.134;6.548;2023-12-20T04:07:35;4.80;99.80
78345;DHT22;67620;51.134;6.548;2023-12-20T04:10:01;4.80;99.80
78345;DHT22;67620;51.134;6.548;2023-12-20T04:12:29;4.70;99.70
78345;DHT22;67620;51.134;6.548;2023-12-20T04:14:54;4.50;99.50
78345;DHT22;67620;51.134;6.548;2023-12-20T04:17:20;4.50;99.60
78345;DHT22;67620;51.134;6.548;2023-12-20T04:19:45;4.60;99.60
78345;DHT22;67620;51.134;6.548;2023-12-20T04:22:11;4.60;99.60
78345;DHT22;67620;51.134;6.548;2023-12-20T04:24:36;4.50;99.60
78345;DHT22;67620;51.134;6.548;2023-12-20T04:27:02;4.40;99.50
78345;DHT22;67620;51.134;6.548;2023-12-20T04:29:28;4.40;99.50
78345;DHT22;67620;51.134;6.548;2023-12-20T04:31:53;4.30;99.50
78345;DHT22;67620;51.134;6.548;2023-12-20T04:34:19;4.40;99.60
78345;DHT22;67620;51.134;6.548;2023-12-20T04:36:45;4.30;99.50
78345;DHT22;67620;51.134;6.548;2023-12-20T04:39:12;4.40;99.60
78345;DHT22;67620;51.134;6.548;2023-12-20T04:41:38;4.50;99.60
78345;DHT22;67620;51.134;6.548;2023-12-20T04:44:03;4.50;99.60
78345;DHT22;67620;51.134;6.548;2023-12-20T04:46:29;4.40;99.50
78345;DHT22;67620;51.134;6.548;2023-12-20T04:48:54;4.30;99.40
78345;DHT22;67620;51.134;6.548;2023-12-20T04:51:20;4.30;99.40
78345;DHT22;67620;51.134;6.548;2023-12-20T04:53:46;4.20;99.30
78345;DHT22;67620;51.134;6.548;2023-12-20T04:56:11;4.20;99.40
78345;DHT22;67620;51.134;6.548;2023-12-20T04:58:37;4.20;99.30
78345;DHT22;67620;51.134;6.548;2023-12-20T05:01:04;4.20;99.40
78345;DHT22;67620;51.134;6.548;2023-12-20T05:03:31;4.10;99.30
78345;DHT22;67620;51.134;6.548;2023-12-20T05:05:56;4.10;99.30
78345;DHT22;67620;51.134;6.548;2023-12-20T05:08:22;4.10;99.30
78345;DHT22;67620;51.134;6.548;2023-12-20T05:10:47;4.30;99.50
78345;DHT22;67620;51.134;6.548;2023-12-20T05:13:13;4.40;99.50
78345;DHT22;67620;51.134;6.548;2023-12-20T05:15:39;4.50;99.60
78345;DHT22;67620;51.134;6.548;2023-12-20T05:18:04;4.60;99.60
78345;DHT22;67620;51.134;6.548;2023-12-20T05:20:30;4.60;99.60
78345;DHT22;67620;51.134;6.548;2023-12-20T05:22:55;4.70;99.60
78345;DHT22;67620;51.134;6.548;2023-12-20T05:25:21;4.70;99.70
78345;DHT22;67620;51.134;6.548;2023-12-20T05:27:46;4.80;99.60
78345;DHT22;67620;51.134;6.548;2023-12-20T05:30:12;4.80;99.60
78345;DHT22;67620;51.134;6.548;2023-12-20T05:32:37;4.80;99.60
78345;DHT22;67620;51.134;6.548;2023-12-20T05:35:03;4.80;99.50
78345;DHT22;67620;51.134;6.548;2023-12-20T05:37:28;5.10;99.60
78345;DHT22;67620;51.134;6.548;2023-12-20T05:39:54;5.20;99.40
78345;DHT22;67620;51.134;6.548;2023-12-20T05:42:19;5.30;99.30
78345;DHT22;67620;51.134;6.548;2023-12-20T05:44:45;5.10;99.10
78345;DHT22;67620;51.134;6.548;2023-12-20T05:47:10;5.10;99.10
78345;DHT22;67620;51.134;6.548;2023-12-20T05:49:36;5.10;99.10
78345;DHT22;67620;51.134;6.548;2023-12-20T05:52:01;5.00;99.10
78345;DHT22;67620;51.134;6.548;2023-12-20T05:54:27;5.00;99.20
78345;DHT22;67620;51.134;6.548;2023-12-20T05:56:52;5.00;99.20
78345;DHT22;67620;51.134;6.548;2023-12-20T05:59:18;5.00;99.20
78345;DHT22;67620;51.134;6.548;2023-12-20T06:01:43;5.00;99.20
78345;DHT22;67620;51.134;6.548;2023-12-20T06:04:09;5.00;99.20
78345;DHT22;67620;51.134;6.548;2023-12-20T06:06:39;5.10;99.20
78345;DHT22;67620;51.134;6.548;2023-12-20T06:09:05;5.10;99.20
78345;DHT22;67620;51.134;6.548;2023-12-20T06:11:30;5.10;99.20
78345;DHT22;67620;51.134;6.548;2023-12-20T06:13:56;5.00;99.20
78345;DHT22;67620;51.134;6.548;2023-12-20T06:16:21;5.00;99.10
78345;DHT22;67620;51.134;6.548;2023-12-20T06:18:47;5.10;99.10
78345;DHT22;67620;51.134;6.548;2023-12-20T06:21:12;5.10;99.10
78345;DHT22;67620;51.134;6.548;2023-12-20T06:23:38;5.10;99.10
78345;DHT22;67620;51.134;6.548;2023-12-20T06:26:04;5.10;99.10
78345;DHT22;67620;51.134;6.548;2023-12-20T06:28:30;5.10;99.00
78345;DHT22;67620;51.134;6.548;2023-12-20T06:30:55;5.10;98.80
78345;DHT22;67620;51.134;6.548;2023-12-20T06:33:22;5.10;98.80
78345;DHT22;67620;51.134;6.548;2023-12-20T06:35:48;5.20;98.80
78345;DHT22;67620;51.134;6.548;2023-12-20T06:38:13;5.10;98.70
78345;DHT22;67620;51.134;6.548;2023-12-20T06:40:39;5.20;98.70
78345;DHT22;67620;51.134;6.548;2023-12-20T06:43:04;5.20;98.60
78345;DHT22;67620;51.134;6.548;2023-12-20T06:45:32;5.20;98.40
78345;DHT22;67620;51.134;6.548;2023-12-20T06:47:57;5.20;98.00
78345;DHT22;67620;51.134;6.548;2023-12-20T06:50:23;5.20;97.70
78345;DHT22;67620;51.134;6.548;2023-12-20T06:52:49;5.20;97.40
78345;DHT22;67620;51.134;6.548;2023-12-20T06:55:14;5.20;97.30
78345;DHT22;67620;51.134;6.548;2023-12-20T06:57:40;5.20;97.10
78345;DHT22;67620;51.134;6.548;2023-12-20T07:00:06;5.20;97.10
78345;DHT22;67620;51.134;6.548;2023-12-20T07:02:32;5.20;96.90
78345;DHT22;67620;51.134;6.548;2023-12-20T07:04:57;5.30;96.90
78345;DHT22;67620;51.134;6.548;2023-12-20T07:07:23;5.30;96.90
78345;DHT22;67620;51.134;6.548;2023-12-20T07:09:51;5.30;96.70
78345;DHT22;67620;51.134;6.548;2023-12-20T07:12:17;5.30;96.70
78345;DHT22;67620;51.134;6.548;2023-12-20T07:14:45;5.30;96.40
78345;DHT22;67620;51.134;6.548;2023-12-20T07:17:10;5.30;96.60
78345;DHT22;67620;51.134;6.548;2023-12-20T07:19:39;5.30;96.50
78345;DHT22;67620;51.134;6.548;2023-12-20T07:22:05;5.30;96.50
78345;DHT22;67620;51.134;6.548;2023-12-20T07:24:31;5.30;96.50
78345;DHT22;67620;51.134;6.548;2023-12-20T07:26:56;5.30;95.90
78345;DHT22;67620;51.134;6.548;2023-12-20T07:29:22;5.40;95.80
78345;DHT22;67620;51.134;6.548;2023-12-20T07:31:47;5.40;95.90
78345;DHT22;67620;51.134;6.548;2023-12-20T07:34:13;5.40;95.50
78345;DHT22;67620;51.134;6.548;2023-12-20T07:36:38;5.40;95.40
78345;DHT22;67620;51.134;6.548;2023-12-20T07:39:04;5.30;95.30
78345;DHT22;67620;51.134;6.548;2023-12-20T07:41:29;5.30;95.20
78345;DHT22;67620;51.134;6.548;2023-12-20T07:43:55;5.40;94.90
78345;DHT22;67620;51.134;6.548;2023-12-20T07:46:22;5.30;95.50
78345;DHT22;67620;51.134;6.548;2023-12-20T07:48:50;5.30;95.50
78345;DHT22;67620;51.134;6.548;2023-12-20T07:51:15;5.30;95.50
78345;DHT22;67620;51.134;6.548;2023-12-20T07:53:41;5.30;95.50
78345;DHT22;67620;51.134;6.548;2023-12-20T07:56:16;5.30;95.10
78345;DHT22;67620;51.134;6.548;2023-12-20T07:58:42;5.30;94.70
78345;DHT22;67620;51.134;6.548;2023-12-20T08:01:08;5.30;94.70
78345;DHT22;67620;51.134;6.548;2023-12-20T08:03:34;5.20;94.70
78345;DHT22;67620;51.134;6.548;2023-12-20T08:05:59;5.10;95.10
78345;DHT22;67620;51.134;6.548;2023-12-20T08:08:25;5.20;95.20
78345;DHT22;67620;51.134;6.548;2023-12-20T08:10:51;5.20;95.40
78345;DHT22;67620;51.134;6.548;2023-12-20T08:13:16;5.20;95.00
78345;DHT22;67620;51.134;6.548;2023-12-20T08:15:42;5.20;95.30
78345;DHT22;67620;51.134;6.548;2023-12-20T08:18:07;5.20;95.30
78345;DHT22;67620;51.134;6.548;2023-12-20T08:20:33;5.20;94.60
78345;DHT22;67620;51.134;6.548;2023-12-20T08:22:58;5.10;94.40
78345;DHT22;67620;51.134;6.548;2023-12-20T08:25:24;5.20;94.50
78345;DHT22;67620;51.134;6.548;2023-12-20T08:27:49;5.30;94.40
78345;DHT22;67620;51.134;6.548;2023-12-20T08:30:15;5.30;94.60
78345;DHT22;67620;51.134;6.548;2023-12-20T08:32:42;5.30;94.80
78345;DHT22;67620;51.134;6.548;2023-12-20T08:35:08;5.30;93.80
78345;DHT22;67620;51.134;6.548;2023-12-20T08:37:34;5.30;94.00
78345;DHT22;67620;51.134;6.548;2023-12-20T08:40:01;5.40;94.10
78345;DHT22;67620;51.134;6.548;2023-12-20T08:42:26;5.40;93.90
78345;DHT22;67620;51.134;6.548;2023-12-20T08:44:56;5.50;94.00
78345;DHT22;67620;51.134;6.548;2023-12-20T08:47:22;5.40;93.60
78345;DHT22;67620;51.134;6.548;2023-12-20T08:49:48;5.40;93.70
78345;DHT22;67620;51.134;6.548;2023-12-20T08:52:13;5.50;93.20
78345;DHT22;67620;51.134;6.548;2023-12-20T08:54:39;5.60;93.00
78345;DHT22;67620;51.134;6.548;2023-12-20T08:57:04;5.50;92.80
78345;DHT22;67620;51.134;6.548;2023-12-20T08:59:32;5.60;93.40
78345;DHT22;67620;51.134;6.548;2023-12-20T09:01:57;5.60;92.60
78345;DHT22;67620;51.134;6.548;2023-12-20T09:04:23;5.70;93.00
78345;DHT22;67620;51.134;6.548;2023-12-20T09:06:48;5.60;92.30
78345;DHT22;67620;51.134;6.548;2023-12-20T09:09:14;5.80;93.00
78345;DHT22;67620;51.134;6.548;2023-12-20T09:11:40;5.70;92.70
78345;DHT22;67620;51.134;6.548;2023-12-20T09:14:06;5.70;92.80
78345;DHT22;67620;51.134;6.548;2023-12-20T09:16:31;5.80;92.30
78345;DHT22;67620;51.134;6.548;2023-12-20T09:18:57;5.70;92.70
78345;DHT22;67620;51.134;6.548;2023-12-20T09:21:23;5.70;92.50
78345;DHT22;67620;51.134;6.548;2023-12-20T09:23:48;5.80;92.10
78345;DHT22;67620;51.134;6.548;2023-12-20T09:26:14;5.70;92.10
78345;DHT22;67620;51.134;6.548;2023-12-20T09:28:39;5.70;92.20
78345;DHT22;67620;51.134;6.548;2023-12-20T09:31:05;5.80;92.90
78345;DHT22;67620;51.134;6.548;2023-12-20T09:33:32;5.80;93.00
78345;DHT22;67620;51.134;6.548;2023-12-20T09:35:58;5.70;92.90
78345;DHT22;67620;51.134;6.548;2023-12-20T09:38:23;5.70;93.10
78345;DHT22;67620;51.134;6.548;2023-12-20T09:40:49;5.70;92.60
78345;DHT22;67620;51.134;6.548;2023-12-20T09:43:15;5.80;93.10
78345;DHT22;67620;51.134;6.548;2023-12-20T09:45:42;5.80;92.40
78345;DHT22;67620;51.134;6.548;2023-12-20T09:48:10;5.80;92.50
78345;DHT22;67620;51.134;6.548;2023-12-20T09:50:36;5.80;92.10
78345;DHT22;67620;51.134;6.548;2023-12-20T09:53:02;5.90;92.50
78345;DHT22;67620;51.134;6.548;2023-12-20T09:55:30;6.00;91.70
78345;DHT22;67620;51.134;6.548;2023-12-20T09:57:57;6.00;92.00
78345;DHT22;67620;51.134;6.548;2023-12-20T10:00:23;6.00;91.90
78345;DHT22;67620;51.134;6.548;2023-12-20T10:02:58;6.10;91.70
78345;DHT22;67620;51.134;6.548;2023-12-20T10:05:28;6.10;91.50
78345;DHT22;67620;51.134;6.548;2023-12-20T10:07:53;6.10;90.90
78345;DHT22;67620;51.134;6.548;2023-12-20T10:10:19;6.10;91.00
78345;DHT22;67620;51.134;6.548;2023-12-20T10:13:04;6.10;91.50
78345;DHT22;67620;51.134;6.548;2023-12-20T10:15:29;6.10;90.50
78345;DHT22;67620;51.134;6.548;2023-12-20T10:17:56;6.20;90.40
78345;DHT22;67620;51.134;6.548;2023-12-20T10:20:22;6.20;91.00
78345;DHT22;67620;51.134;6.548;2023-12-20T10:22:48;6.10;90.00
78345;DHT22;67620;51.134;6.548;2023-12-20T10:25:14;6.20;90.20
78345;DHT22;67620;51.134;6.548;2023-12-20T10:27:40;6.10;90.00
78345;DHT22;67620;51.134;6.548;2023-12-20T10:30:06;6.10;90.40
78345;DHT22;67620;51.134;6.548;2023-12-20T10:32:31;6.10;90.80
78345;DHT22;67620;51.134;6.548;2023-12-20T10:34:57;6.10;89.50
78345;DHT22;67620;51.134;6.548;2023-12-20T10:37:24;6.20;89.20
78345;DHT22;67620;51.134;6.548;2023-12-20T10:39:52;6.10;89.20
78345;DHT22;67620;51.134;6.548;2023-12-20T10:42:22;6.10;89.50
78345;DHT22;67620;51.134;6.548;2023-12-20T10:44:51;6.10;89.40
78345;DHT22;67620;51.134;6.548;2023-12-20T10:47:17;6.10;88.70
78345;DHT22;67620;51.134;6.548;2023-12-20T10:49:43;6.20;89.30
78345;DHT22;67620;51.134;6.548;2023-12-20T10:52:11;6.20;89.20
78345;DHT22;67620;51.134;6.548;2023-12-20T10:54:38;6.20;89.00
78345;DHT22;67620;51.134;6.548;2023-12-20T10:57:05;6.30;88.70
78345;DHT22;67620;51.134;6.548;2023-12-20T10:59:33;6.40;88.00
78345;DHT22;67620;51.134;6.548;2023-12-20T11:02:03;6.40;88.40
78345;DHT22;67620;51.134;6.548;2023-12-20T11:07:19;6.40;88.10
78345;DHT22;67620;51.134;6.548;2023-12-20T11:10:21;6.40;87.90
78345;DHT22;67620;51.134;6.548;2023-12-20T11:12:58;6.50;87.40
78345;DHT22;67620;51.134;6.548;2023-12-20T11:15:29;6.50;87.90
78345;DHT22;67620;51.134;6.548;2023-12-20T11:17:56;6.40;88.10
78345;DHT22;67620;51.134;6.548;2023-12-20T11:20:23;6.40;87.70
78345;DHT22;67620;51.134;6.548;2023-12-20T11:22:53;6.30;88.30
78345;DHT22;67620;51.134;6.548;2023-12-20T11:25:19;6.30;89.00
78345;DHT22;67620;51.134;6.548;2023-12-20T11:28:11;6.30;89.00
78345;DHT22;67620;51.134;6.548;2023-12-20T11:30:52;6.30;88.90
78345;DHT22;67620;51.134;6.548;2023-12-20T11:33:37;6.30;89.50
78345;DHT22;67620;51.134;6.548;2023-12-20T11:36:06;6.30;89.60
78345;DHT22;67620;51.134;6.548;2023-12-20T11:38:37;6.30;89.00
78345;DHT22;67620;51.134;6.548;2023-12-20T11:41:05;6.30;88.70
78345;DHT22;67620;51.134;6.548;2023-12-20T11:43:32;6.30;88.60
78345;DHT22;67620;51.134;6.548;2023-12-20T11:46:04;6.30;89.20
78345;DHT22;67620;51.134;6.548;2023-12-20T11:48:31;6.30;89.80
78345;DHT22;67620;51.134;6.548;2023-12-20T11:50:57;6.30;90.40
78345;DHT22;67620;51.134;6.548;2023-12-20T11:53:22;6.30;89.90
78345;DHT22;67620;51.134;6.548;2023-12-20T11:55:49;6.20;89.90
78345;DHT22;67620;51.134;6.548;2023-12-20T11:58:14;6.30;90.40
78345;DHT22;67620;51.134;6.548;2023-12-20T12:00:44;6.30;90.50
78345;DHT22;67620;51.134;6.548;2023-12-20T12:03:10;6.20;90.90
78345;DHT22;67620;51.134;6.548;2023-12-20T12:05:35;6.30;91.70
78345;DHT22;67620;51.134;6.548;2023-12-20T12:08:02;6.30;92.10
78345;DHT22;67620;51.134;6.548;2023-12-20T12:10:28;6.30;92.40
78345;DHT22;67620;51.134;6.548;2023-12-20T12:12:54;6.30;92.90
78345;DHT22;67620;51.134;6.548;2023-12-20T12:15:20;6.30;92.90
78345;DHT22;67620;51.134;6.548;2023-12-20T12:17:55;6.30;93.00
78345;DHT22;67620;51.134;6.548;2023-12-20T12:20:22;6.40;92.80
78345;DHT22;67620;51.134;6.548;2023-12-20T12:23:03;6.40;92.90
78345;DHT22;67620;51.134;6.548;2023-12-20T12:25:31;6.50;92.10
78345;DHT22;67620;51.134;6.548;2023-12-20T12:27:58;6.40;91.60
78345;DHT22;67620;51.134;6.548;2023-12-20T12:30:24;6.40;91.70
78345;DHT22;67620;51.134;6.548;2023-12-20T12:32:53;6.30;92.10
78345;DHT22;67620;51.134;6.548;2023-12-20T12:35:19;6.30;91.50
78345;DHT22;67620;51.134;6.548;2023-12-20T12:37:44;6.30;91.50
78345;DHT22;67620;51.134;6.548;2023-12-20T12:40:14;6.30;91.00
78345;DHT22;67620;51.134;6.548;2023-12-20T12:42:41;6.30;91.00
78345;DHT22;67620;51.134;6.548;2023-12-20T12:45:07;6.40;91.70
78345;DHT22;67620;51.134;6.548;2023-12-20T12:47:34;6.50;90.90
78345;DHT22;67620;51.134;6.548;2023-12-20T12:50:00;6.70;89.90
78345;DHT22;67620;51.134;6.548;2023-12-20T12:52:25;6.70;89.80
78345;DHT22;67620;51.134;6.548;2023-12-20T12:54:52;6.80;89.40
78345;DHT22;67620;51.134;6.548;2023-12-20T12:57:18;6.80;89.70
78345;DHT22;67620;51.134;6.548;2023-12-20T12:59:44;6.80;90.50
78345;DHT22;67620;51.134;6.548;2023-12-20T13:02:13;6.80;91.50
78345;DHT22;67620;51.134;6.548;2023-12-20T13:04:40;6.70;91.00
78345;DHT22;67620;51.134;6.548;2023-12-20T13:07:06;6.80;92.30
78345;DHT22;67620;51.134;6.548;2023-12-20T13:09:33;6.80;92.00
78345;DHT22;67620;51.134;6.548;2023-12-20T13:11:59;6.90;92.40
78345;DHT22;67620;51.134;6.548;2023-12-20T13:14:25;6.80;91.80
78345;DHT22;67620;51.134;6.548;2023-12-20T13:16:50;6.80;92.00
78345;DHT22;67620;51.134;6.548;2023-12-20T13:19:16;6.90;92.00
78345;DHT22;67620;51.134;6.548;2023-12-20T13:21:41;6.90;92.00
78345;DHT22;67620;51.134;6.548;2023-12-20T13:24:07;6.90;91.90
78345;DHT22;67620;51.134;6.548;2023-12-20T13:26:32;6.80;90.60
78345;DHT22;67620;51.134;6.548;2023-12-20T13:28:58;6.80;90.50
78345;DHT22;67620;51.134;6.548;2023-12-20T13:31:24;6.80;90.50
78345;DHT22;67620;51.134;6.548;2023-12-20T13:33:49;6.80;90.40
78345;DHT22;67620;51.134;6.548;2023-12-20T13:36:15;6.80;90.30
78345;DHT22;67620;51.134;6.548;2023-12-20T13:38:40;6.70;90.30
78345;DHT22;67620;51.134;6.548;2023-12-20T13:41:06;6.70;90.20
78345;DHT22;67620;51.134;6.548;2023-12-20T13:43:32;6.70;90.30
78345;DHT22;67620;51.134;6.548;2023-12-20T13:45:58;6.70;90.70
78345;DHT22;67620;51.134;6.548;2023-12-20T13:48:24;6.70;91.50
78345;DHT22;67620;51.134;6.548;2023-12-20T13:50:49;6.60;91.80
78345;DHT22;67620;51.134;6.548;2023-12-20T13:53:15;6.60;91.50
78345;DHT22;67620;51.134;6.548;2023-12-20T13:55:40;6.60;91.30
78345;DHT22;67620;51.134;6.548;2023-12-20T13:58:06;6.70;91.20
78345;DHT22;67620;51.134;6.548;2023-12-20T14:00:31;6.70;90.80
78345;DHT22;67620;51.134;6.548;2023-12-20T14:02:57;6.70;91.20
78345;DHT22;67620;51.134;6.548;2023-12-20T14:05:24;6.70;90.50
78345;DHT22;67620;51.134;6.548;2023-12-20T14:07:49;6.70;91.00
78345;DHT22;67620;51.134;6.548;2023-12-20T14:10:16;6.70;90.50
78345;DHT22;67620;51.134;6.548;2023-12-20T14:12:41;6.70;90.50
78345;DHT22;67620;51.134;6.548;2023-12-20T14:15:08;6.70;90.60
78345;DHT22;67620;51.134;6.548;2023-12-20T14:17:39;6.70;90.70
78345;DHT22;67620;51.134;6.548;2023-12-20T14:20:08;6.80;90.50
78345;DHT22;67620;51.134;6.548;2023-12-20T14:22:34;6.80;90.60
78345;DHT22;67620;51.134;6.548;2023-12-20T14:25:00;6.80;90.50
78345;DHT22;67620;51.134;6.548;2023-12-20T14:27:26;6.90;90.50
78345;DHT22;67620;51.134;6.548;2023-12-20T14:29:53;6.90;90.30
78345;DHT22;67620;51.134;6.548;2023-12-20T14:32:19;7.00;90.10
78345;DHT22;67620;51.134;6.548;2023-12-20T14:34:45;7.00;89.80
78345;DHT22;67620;51.134;6.548;2023-12-20T14:37:11;7.10;89.50
78345;DHT22;67620;51.134;6.548;2023-12-20T14:39:36;7.00;89.70
78345;DHT22;67620;51.134;6.548;2023-12-20T14:42:09;7.00;89.50
78345;DHT22;67620;51.134;6.548;2023-12-20T14:44:39;7.00;89.40
78345;DHT22;67620;51.134;6.548;2023-12-20T14:47:04;7.00;89.50
78345;DHT22;67620;51.134;6.548;2023-12-20T14:49:30;7.00;89.60
78345;DHT22;67620;51.134;6.548;2023-12-20T14:51:56;7.00;90.10
78345;DHT22;67620;51.134;6.548;2023-12-20T14:54:21;6.90;90.50
78345;DHT22;67620;51.134;6.548;2023-12-20T14:56:47;6.90;91.10
78345;DHT22;67620;51.134;6.548;2023-12-20T14:59:13;6.80;91.20
78345;DHT22;67620;51.134;6.548;2023-12-20T15:01:39;6.90;90.80
78345;DHT22;67620;51.134;6.548;2023-12-20T15:04:06;6.90;90.90
78345;DHT22;67620;51.134;6.548;2023-12-20T15:06:32;6.90;90.90
78345;DHT22;67620;51.134;6.548;2023-12-20T15:08:58;6.90;90.60
78345;DHT22;67620;51.134;6.548;2023-12-20T15:11:24;6.80;91.00
78345;DHT22;67620;51.134;6.548;2023-12-20T15:13:49;6.80;91.10
78345;DHT22;67620;51.134;6.548;2023-12-20T15:16:21;6.80;90.70
78345;DHT22;67620;51.134;6.548;2023-12-20T15:18:46;6.80;90.70
78345;DHT22;67620;51.134;6.548;2023-12-20T15:21:12;6.80;91.20
78345;DHT22;67620;51.134;6.548;2023-12-20T15:23:37;6.80;91.20
78345;DHT22;67620;51.134;6.548;2023-12-20T15:26:03;6.70;91.50
78345;DHT22;67620;51.134;6.548;2023-12-20T15:28:30;6.80;91.40
78345;DHT22;67620;51.134;6.548;2023-12-20T15:30:55;6.80;90.90
78345;DHT22;67620;51.134;6.548;2023-12-20T15:33:22;6.80;91.00
78345;DHT22;67620;51.134;6.548;2023-12-20T15:35:47;6.80;90.90
78345;DHT22;67620;51.134;6.548;2023-12-20T15:38:13;6.70;91.00
78345;DHT22;67620;51.134;6.548;2023-12-20T15:40:38;6.70;91.10
78345;DHT22;67620;51.134;6.548;2023-12-20T15:43:04;6.60;91.30